Flight Track Log - Related Links

Times and Time Zones

All times are in EDT time to prevent confusion due to time zone crossing. See the USC110 flight status page for this flight to view local times or setup timezone preferences in your user account.

Time Position Orientation Groundspeed Altitude Reporting Facility
EDT Latitude Longitude Course Direction KTS MPH feet Rate Location/Type
Wed 07:37:02 AM 35.2169 -80.9831 264° West 150 173 2,600  Level Atlanta Center
Wed 07:38:03 AM 35.2100 -81.0367 261° West 163 188 3,800 689 Climbing Atlanta Center
Wed 07:39:04 AM 35.2053 -81.0953 264° West 180 207 4,000 362 Climbing Atlanta Center
Wed 07:39:59 AM 35.2253 -81.1481 295° West 176 203 4,500 639 Climbing Atlanta Center
Wed 07:41:06 AM 35.2633 -81.1747 330° Northwest 143 165 5,300 689 Climbing Atlanta Center
Wed 07:42:01 AM 35.2992 -81.1911 340° North 143 165 5,900 738 Climbing Atlanta Center
Wed 07:43:08 AM 35.3433 -81.2075 343° North 147 169 6,800 750 Climbing Atlanta Center
Wed 07:44:09 AM 35.3833 -81.2214 344° North 150 173 7,500 635 Climbing Atlanta Center
Wed 07:44:52 AM 35.4067 -81.2308 342° North 157 181 7,900 291 Climbing Atlanta Center
Wed 07:45:52 AM 35.4550 -81.2469 345° North 157 181 8,000 50 Climbing Atlanta Center
Wed 07:46:52 AM 35.5011 -81.2633 344° North 164 189 8,000  Level Atlanta Center
Wed 07:47:52 AM 35.5453 -81.2797 343° North 169 194 8,000  Level Atlanta Center
Wed 07:48:52 AM 35.5917 -81.2986 342° North 169 194 8,000  Level Atlanta Center
Wed 07:49:52 AM 35.6336 -81.3125 345° North 169 194 8,000  Level Atlanta Center
Wed 07:50:52 AM 35.6758 -81.3289 342° North 164 189 8,000  Level Atlanta Center
Wed 07:51:52 AM 35.7200 -81.3428 346° North 164 189 8,000  Level Atlanta Center
Wed 07:52:52 AM 35.7683 -81.3592 345° North 169 194 8,000  Level Atlanta Center
Wed 07:53:52 AM 35.8125 -81.3781 341° North 169 194 8,000  Level Atlanta Center
Wed 07:54:52 AM 35.8608 -81.3944 345° North 169 194 8,000  Level Atlanta Center
Wed 07:55:52 AM 35.9028 -81.4111 342° North 164 189 8,000  Level Atlanta Center
Wed 07:56:52 AM 35.9469 -81.4250 346° North 164 189 8,000  Level Atlanta Center
Wed 07:57:52 AM 35.9892 -81.4417 342° North 164 189 8,000  Level Atlanta Center
Wed 07:58:52 AM 36.0333 -81.4583 343° North 164 189 8,000  Level Atlanta Center
Wed 07:59:52 AM 36.0775 -81.4747 343° North 164 189 8,000  Level Atlanta Center
Wed 08:00:52 AM 36.1214 -81.4889 345° North 164 189 8,000  Level Atlanta Center
Wed 08:01:52 AM 36.1656 -81.5053 343° North 164 189 8,000  Level Atlanta Center
Wed 08:02:52 AM 36.2097 -81.5247 340° North 164 189 8,000  Level Atlanta Center
Wed 08:03:52 AM 36.2497 -81.5361 347° North 164 189 8,000  Level Atlanta Center
Wed 08:04:52 AM 36.2958 -81.5528 344° North 164 189 8,000  Level Atlanta Center
Wed 08:05:52 AM 36.3381 -81.5694 342° North 164 189 8,000  Level Atlanta Center
Wed 08:06:52 AM 36.3819 -81.5864 343° North 164 189 8,000  Level Atlanta Center
Wed 08:07:52 AM 36.4283 -81.6031 344° North 164 189 8,000  Level Atlanta Center
Wed 08:08:52 AM 36.4703 -81.6197 342° North 164 189 8,000  Level Atlanta Center
Wed 08:09:52 AM 36.5144 -81.6392 341° North 164 189 8,000  Level Atlanta Center
Wed 08:10:52 AM 36.5606 -81.6531 346° North 164 189 8,000  Level Atlanta Center
Wed 08:11:52 AM 36.6047 -81.6700 343° North 164 189 8,000  Level Atlanta Center
Wed 08:12:52 AM 36.6511 -81.6892 342° North 164 189 8,000  Level Atlanta Center
Wed 08:13:52 AM 36.6931 -81.7036 345° North 164 189 8,000  Level Atlanta Center
Wed 08:14:52 AM 36.7372 -81.7206 343° North 164 189 8,000  Level Atlanta Center
Wed 08:15:52 AM 36.7811 -81.7372 343° North 164 189 8,000  Level Atlanta Center
Wed 08:16:52 AM 36.8253 -81.7542 343° North 164 189 8,000  Level Atlanta Center
Wed 08:17:59 AM 36.8772 -81.7714 345° North 166 191 8,000  Level Indianapolis Center
Wed 08:19:01 AM 36.9211 -81.7883 343° North 165 190 8,000 49 Level Indianapolis Center
Wed 08:20:02 AM 36.9650 -81.8044 344° North 165 190 8,100 49 Climbing Indianapolis Center
Wed 08:21:04 AM 37.0092 -81.8214 343° North 165 190 8,100  Level Indianapolis Center
Wed 08:22:05 AM 37.0547 -81.8383 343° North 170 196 8,100  Level Indianapolis Center
Wed 08:23:07 AM 37.1044 -81.8578 343° North 161 185 8,100  Level Indianapolis Center
Wed 08:24:09 AM 37.1481 -81.8733 344° North 162 186 8,100  Level Indianapolis Center
Wed 08:25:10 AM 37.1928 -81.8903 343° North 165 190 8,100  Level Indianapolis Center
Wed 08:26:12 AM 37.2367 -81.9081 342° North 166 191 8,100  Level Indianapolis Center
Wed 08:27:13 AM 37.2803 -81.9253 343° North 164 189 8,100  Level Indianapolis Center
Wed 08:28:15 AM 37.3253 -81.9422 343° North 166 191 8,100  Level Indianapolis Center
Wed 08:29:17 AM 37.3775 -81.9617 344° North 167 192 8,100  Level Indianapolis Center
Wed 08:30:18 AM 37.4219 -81.9792 343° North 167 192 8,100  Level Indianapolis Center
Wed 08:31:20 AM 37.4661 -81.9958 343° North 167 192 8,100  Level Indianapolis Center
Wed 08:32:22 AM 37.5100 -82.0136 342° North 165 190 8,100  Level Indianapolis Center
Wed 08:33:23 AM 37.5536 -82.0300 343° North 164 189 8,100  Level Indianapolis Center
Wed 08:34:25 AM 37.5967 -82.0464 343° North 163 188 8,100  Level Indianapolis Center
Wed 08:35:27 AM 37.6408 -82.0631 343° North 163 188 8,100  Level Indianapolis Center
Wed 08:36:28 AM 37.6928 -82.0850 342° North 167 192 8,100  Level Indianapolis Center
Wed 08:37:30 AM 37.7375 -82.1008 344° North 166 191 8,100  Level Indianapolis Center
Wed 08:38:32 AM 37.7806 -82.1175 343° North 162 186 8,100  Level Indianapolis Center
Wed 08:39:33 AM 37.8247 -82.1347 343° North 164 189 8,100 -49 Level Indianapolis Center
Wed 08:40:35 AM 37.8736 -82.1531 344° North 167 192 8,000 -97 Descending Indianapolis Center
Wed 08:41:37 AM 37.9139 -82.1697 342° North 167 192 7,900 -49 Descending Indianapolis Center
Wed 08:42:38 AM 37.9656 -82.1889 344° North 165 190 7,900  Level Indianapolis Center
Wed 08:43:40 AM 38.0097 -82.2064 343° North 166 191 7,900  Level Indianapolis Center
Wed 08:44:42 AM 38.0547 -82.2233 343° North 167 192 7,900  Level Indianapolis Center
Wed 08:45:44 AM 38.0989 -82.2403 343° North 167 192 7,900  Level Indianapolis Center
Wed 08:46:45 AM 38.1408 -82.2583 341° North 170 196 7,900  Level Indianapolis Center
Wed 08:47:47 AM 38.1856 -82.2756 343° North 167 192 7,900  Level Indianapolis Center
Wed 08:48:49 AM 38.2403 -82.2958 344° North 170 196 7,900  Level Indianapolis Center
Wed 08:49:51 AM 38.2853 -82.3136 343° North 169 194 7,900  Level Indianapolis Center
Wed 08:50:52 AM 38.3314 -82.3317 343° North 171 197 7,900  Level Indianapolis Center
Wed 08:51:54 AM 38.3753 -82.3503 342° North 168 193 7,900  Level Indianapolis Center
Wed 08:52:56 AM 38.4208 -82.3669 344° North 168 193 7,900  Level Indianapolis Center
Wed 08:53:58 AM 38.4661 -82.3858 342° North 169 194 7,900  Level Indianapolis Center
Wed 08:55:00 AM 38.5122 -82.4047 342° North 172 198 7,900  Level Indianapolis Center
Wed 08:56:02 AM 38.5575 -82.4219 343° North 170 196 7,900  Level Indianapolis Center
Wed 08:57:03 AM 38.6125 -82.4439 343° North 172 198 7,900  Level Indianapolis Center
Wed 08:58:05 AM 38.6581 -82.4628 342° North 170 196 7,900  Level Indianapolis Center
Wed 08:59:07 AM 38.7036 -82.4808 343° North 171 197 7,900  Level Indianapolis Center
Wed 09:00:09 AM 38.7503 -82.4997 342° North 174 200 7,900  Level Indianapolis Center
Wed 09:01:11 AM 38.7964 -82.5167 344° North 174 200 7,900  Level Indianapolis Center
Wed 09:02:13 AM 38.8433 -82.5356 343° North 175 201 7,900 49 Level Indianapolis Center
Wed 09:03:14 AM 38.8897 -82.5544 342° North 175 201 8,000 49 Climbing Indianapolis Center
Wed 09:04:16 AM 38.9364 -82.5731 343° North 175 201 8,000  Level Indianapolis Center
Wed 09:05:18 AM 38.9919 -82.5956 343° North 175 201 8,000  Level Indianapolis Center
Wed 09:06:20 AM 39.0386 -82.6150 342° North 176 203 8,000  Level Indianapolis Center
Wed 09:07:22 AM 39.0850 -82.6336 343° North 174 200 8,000  Level Indianapolis Center
Wed 09:08:24 AM 39.1317 -82.6525 343° North 176 203 8,000  Level Indianapolis Center
Wed 09:09:26 AM 39.1814 -82.6728 342° North 175 201 8,000  Level Indianapolis Center
Wed 09:10:28 AM 39.2289 -82.6908 344° North 176 203 8,000  Level Indianapolis Center
Wed 09:11:30 AM 39.2767 -82.7106 342° North 178 205 8,000  Level Indianapolis Center
Wed 09:12:32 AM 39.3242 -82.7294 343° North 177 204 8,000 -71 Level Indianapolis Center
Wed 09:12:54 AM 39.3464 -82.7392 341° North 178 205 7,900  Descending Indianapolis Center
Wed 09:13:34 AM 39.3714 -82.7492 343° North 177 204 8,000  Climbing Indianapolis Center
Wed 09:13:56 AM 39.3931 -82.7603 338° Northwest 178 205 7,900  Descending Indianapolis Center
Wed 09:14:36 AM 39.4278 -82.7719 345° North 179 206 8,000  Climbing Indianapolis Center
Wed 09:14:56 AM 39.4442 -82.7794 341° North 178 205 7,900 -484 Descending Indianapolis Center
Wed 09:15:38 AM 39.4764 -82.7917 344° North 182 209 7,500 -689 Descending Indianapolis Center
Wed 09:15:57 AM 39.4953 -82.7986 344° North 187 215 7,200 -581 Descending Indianapolis Center
Wed 09:16:40 AM 39.5269 -82.8122 342° North 187 215 6,900 -689 Descending Indianapolis Center
Wed 09:16:58 AM 39.5439 -82.8203 340° North 190 219 6,500 -677 Descending Indianapolis Center
Wed 09:17:42 AM 39.5767 -82.8328 344° North 186 214 6,200 -700 Descending Indianapolis Center
Wed 09:17:58 AM 39.5928 -82.8422 336° Northwest 183 211 5,800 -774 Descending Indianapolis Center
Wed 09:18:44 AM 39.6250 -82.8522 347° North 182 209 5,400 -984 Descending Indianapolis Center
Wed 09:18:59 AM 39.6417 -82.8611 338° Northwest 181 208 4,800 -1,452 Descending Indianapolis Center
Wed 09:19:46 AM 39.6744 -82.8719 346° North 183 211 3,900 -1,522 Descending Indianapolis Center
Wed 09:20:06 AM 39.6969 -82.8808 343° North 215 247 3,100 -774 Descending Indianapolis Center
Wed 09:20:48 AM 39.7203 -82.8975 331° Northwest 181 208 3,100 -393 Level Indianapolis Center
Wed 09:21:07 AM 39.7433 -82.9053 345° North 184 212 2,700 -730 Descending Indianapolis Center
Wed 09:22:02 AM 39.7892 -82.9078 358° North 185 213 2,200 -229 Descending Indianapolis Center
Wed 09:22:52 AM 39.8178 -82.8714 44° Northeast 176 203 2,300 -590 Climbing Indianapolis Center
Wed 09:24:04 AM 39.8356 -82.9019 307° West 149 171 1,000 -532 Descending Indianapolis Center
Wed 09:24:56 AM 39.8125 -82.9214 213° Southwest 163 188 1,200 231 Climbing Indianapolis Center
Wed 09:26:00 AM 39.8138 -82.9278 218° Southwest  Level Estimated

Login

Don't have an account? Register now (free) for customized features, flight alerts, and more!